CCG2 weather

Lac Gobeil Seaplane Base
Quebec, Canada

Public forecast

Using degrees Celsius for public forecast. Weather courtesy of forecast.io.

METAR (pilot weather report)

Closest report is CFB Bagotville, 54.2 nm (100.3 km) W. Retrieved 2019/05/27 06:00 UTC (28 minutes ago):

CYBG 270600Z 29009KT 25SM FEW040 SCT060 08/02 A2995 RMK SC2SC2 SLP147

TAF (pilot weather forecast)

Forecast is more than 12 hours old.

Closest forecast is Charlevoix Airport, 45.1 nm (83.5 km) SSW. Retrieved 2018/06/10 18:00 UTC (12 months ago):

TAF CYML 101730Z 1018/1106 12005KT P6SM FEW060 FM102100 14006KT P6SM SCT080 BECMG 1021/1023 VRB03KT RMK NXT FCST BY 110000Z